Center Point, Alabama
Current Conditions -  °F | °C
As of 9:53 AM on Friday 28 Nov 2014 (Local Time) from KBHM Reporting Station
Clear Clear  
Wind Chill: 38°   Ceiling: Unl
Heat Index: 41°   Visibility: 10mi
Dew Point: 17°   Wind: 5mph
Humidity: 38%   Direction: NA
Pressure: 30.46"   Gusts: NA
Location:  33.64°N, 86.68°W
Report Text: KBHM 281553Z VRB04KT 10SM CLR 05/M08 A3046 RMK AO2 SLP318 T00501083
Loading
Personal Weather Stations






























Interactive Weather Map New forecast layout! Learn more

10-Day Weather Forecast

Advertisements
Track Severe Weather on mobile